createdAt,value
2023-03-02T00:04:58.610Z,7.00
2023-03-02T00:10:00.665Z,7.13
2023-03-02T00:15:02.406Z,7.47
2023-03-02T00:20:11.985Z,7.47
2023-03-02T00:25:15.944Z,7.80
2023-03-02T00:30:17.921Z,6.90
2023-03-02T00:35:19.534Z,7.40
2023-03-02T00:40:21.507Z,7.10
2023-03-02T00:45:23.060Z,8.23
2023-03-02T00:50:24.903Z,7.10
2023-03-02T00:55:26.547Z,7.50
2023-03-02T01:00:28.772Z,7.43
2023-03-02T01:05:37.155Z,7.43
2023-03-02T01:10:39.315Z,9.07
2023-03-02T01:15:40.918Z,7.83
2023-03-02T01:20:42.671Z,7.57
2023-03-02T01:25:44.298Z,8.03
2023-03-02T01:30:47.362Z,7.97
2023-03-02T01:35:49.202Z,7.97
2023-03-02T01:40:51.037Z,7.20
2023-03-02T01:45:57.841Z,7.53
2023-03-02T01:51:16.014Z,7.57
2023-03-02T01:56:25.019Z,6.73
2023-03-02T02:01:26.977Z,6.97
2023-03-02T02:06:39.264Z,7.00
2023-03-02T02:11:42.657Z,7.43
2023-03-02T02:16:44.469Z,6.30
2023-03-02T02:21:46.071Z,7.40
2023-03-02T02:26:50.432Z,6.93
2023-03-02T02:31:59.554Z,7.23
2023-03-02T02:37:09.492Z,7.33
2023-03-02T02:42:18.384Z,7.73
2023-03-02T02:47:22.021Z,7.10
2023-03-02T02:52:26.615Z,6.60
2023-03-02T02:57:29.170Z,6.63
2023-03-02T03:02:44.689Z,7.13
2023-03-02T03:07:46.858Z,6.83
2023-03-02T03:12:51.488Z,7.40
2023-03-02T03:17:56.771Z,7.57
2023-03-02T03:23:00.624Z,7.60
2023-03-02T03:28:04.836Z,8.10
2023-03-02T03:33:11.091Z,7.40
2023-03-02T03:38:14.047Z,7.07
2023-03-02T03:43:16.632Z,7.23
2023-03-02T03:48:24.438Z,6.93
2023-03-02T03:53:27.857Z,7.77
2023-03-02T03:58:31.739Z,7.30
2023-03-02T04:03:33.885Z,7.57
2023-03-02T04:08:37.836Z,6.67
2023-03-02T04:13:39.826Z,6.80
2023-03-02T04:18:43.301Z,6.70
2023-03-02T04:23:44.908Z,6.87
2023-03-02T04:28:51.055Z,7.20
2023-03-02T04:33:54.077Z,6.90
2023-03-02T04:38:55.832Z,6.40
2023-03-02T04:43:57.602Z,7.00
2023-03-02T04:48:59.128Z,6.87
2023-03-02T04:54:03.143Z,7.23
2023-03-02T04:59:04.822Z,7.27
2023-03-02T05:04:06.480Z,6.80
2023-03-02T05:09:08.338Z,6.97
2023-03-02T05:14:12.124Z,6.70
2023-03-02T05:19:13.693Z,6.90
2023-03-02T05:24:15.394Z,7.60
2023-03-02T05:29:16.975Z,7.23
2023-03-02T05:34:18.871Z,7.93
2023-03-02T05:39:20.527Z,9.20
2023-03-02T05:44:22.359Z,7.80
2023-03-02T05:49:24.224Z,7.30
2023-03-02T05:54:26.792Z,8.10
2023-03-02T05:59:29.152Z,7.43
2023-03-02T06:04:30.820Z,7.63
2023-03-02T06:09:32.363Z,7.43
2023-03-02T06:14:35.472Z,7.97
2023-03-02T06:19:37.177Z,7.47
2023-03-02T06:24:38.792Z,7.13
2023-03-02T06:29:40.580Z,8.10
2023-03-02T06:34:42.335Z,7.57
2023-03-02T06:39:43.897Z,7.70
2023-03-02T06:44:45.555Z,7.30
2023-03-02T06:49:49.730Z,7.70
2023-03-02T06:54:51.392Z,7.63
2023-03-02T06:59:52.924Z,7.37
2023-03-02T07:04:54.479Z,8.00
2023-03-02T07:09:56.695Z,7.60
2023-03-02T07:14:58.338Z,7.27
2023-03-02T07:20:00.178Z,6.90
2023-03-02T07:25:03.290Z,6.03
2023-03-02T07:30:06.271Z,6.57
2023-03-02T07:35:08.252Z,5.77
2023-03-02T07:40:11.664Z,6.20
2023-03-02T07:45:13.476Z,5.57
2023-03-02T07:50:15.284Z,5.93
2023-03-02T07:55:17.140Z,6.60
2023-03-02T08:00:19.684Z,6.13
2023-03-02T08:05:21.270Z,6.23
2023-03-02T08:10:23.166Z,6.37
2023-03-02T08:15:25.055Z,6.40
2023-03-02T08:20:26.715Z,6.03
2023-03-02T08:25:28.366Z,5.77
2023-03-02T08:30:30.064Z,5.87
2023-03-02T08:35:31.750Z,6.00
2023-03-02T08:40:34.834Z,6.60
2023-03-02T08:45:36.433Z,5.80
2023-03-02T08:50:38.018Z,5.73
2023-03-02T08:55:39.783Z,5.70
2023-03-02T09:00:41.420Z,5.83
2023-03-02T09:05:43.580Z,6.20
2023-03-02T09:10:45.152Z,6.17
2023-03-02T09:15:46.817Z,5.43
2023-03-02T09:20:56.131Z,6.23
2023-03-02T09:25:57.765Z,5.63
2023-03-02T09:31:01.329Z,5.93
2023-03-02T09:36:11.483Z,6.10
2023-03-02T09:41:18.830Z,6.23
2023-03-02T09:46:36.618Z,6.17
2023-03-02T09:51:48.176Z,5.90
2023-03-02T09:56:54.777Z,5.80
2023-03-02T10:02:01.381Z,6.37
2023-03-02T10:07:11.942Z,6.37
2023-03-02T10:12:37.997Z,6.63
2023-03-02T10:18:04.572Z,6.20
2023-03-02T10:23:37.285Z,6.13
2023-03-02T10:28:43.564Z,6.77
2023-03-02T10:33:45.170Z,6.47
2023-03-02T10:38:46.926Z,6.53
2023-03-02T10:43:58.411Z,6.10
2023-03-02T10:49:01.362Z,6.17
2023-03-02T10:54:10.741Z,6.10
2023-03-02T10:59:15.402Z,6.50
2023-03-02T11:04:17.118Z,5.67
2023-03-02T11:09:19.059Z,6.03
2023-03-02T11:14:22.295Z,6.03
2023-03-02T11:19:38.392Z,6.03
2023-03-02T11:24:44.667Z,6.10
2023-03-02T11:29:57.817Z,6.17
2023-03-02T11:35:33.623Z,5.80
2023-03-02T11:40:45.521Z,5.67
2023-03-02T11:46:10.840Z,5.77
2023-03-02T11:51:28.062Z,5.53
2023-03-02T11:56:32.605Z,5.83
2023-03-02T12:01:35.905Z,6.60
2023-03-02T12:06:42.122Z,5.83
2023-03-02T12:11:45.719Z,5.50
2023-03-02T12:16:47.368Z,6.50
2023-03-02T12:21:59.584Z,6.10
2023-03-02T12:27:07.578Z,5.40
2023-03-02T12:32:25.677Z,5.33
2023-03-02T12:37:45.831Z,5.80
2023-03-02T12:43:16.682Z,5.27
2023-03-02T12:48:31.454Z,5.53
2023-03-02T12:53:33.110Z,5.70
2023-03-02T12:58:34.708Z,5.43
2023-03-02T13:03:45.614Z,5.23
2023-03-02T13:08:50.279Z,4.90
2023-03-02T13:13:52.176Z,5.13
2023-03-02T13:18:57.147Z,4.70
2023-03-02T13:23:58.992Z,4.80
2023-03-02T13:29:05.711Z,5.43
2023-03-02T13:34:21.116Z,5.20
2023-03-02T13:39:28.510Z,4.77
2023-03-02T13:44:32.728Z,4.93
2023-03-02T13:49:35.962Z,4.73
2023-03-02T13:54:37.896Z,5.00
2023-03-02T13:59:40.033Z,4.90
2023-03-02T14:04:41.769Z,5.30
2023-03-02T14:09:43.796Z,4.77
2023-03-02T14:14:45.739Z,5.53
2023-03-02T14:19:52.552Z,5.40
2023-03-02T14:24:54.244Z,5.20
2023-03-02T14:29:55.860Z,5.43
2023-03-02T14:34:57.534Z,5.00
2023-03-02T14:39:59.284Z,5.27
2023-03-02T14:45:00.963Z,5.30
2023-03-02T14:50:02.511Z,5.10
2023-03-02T14:55:31.528Z,5.00
2023-03-02T15:00:33.143Z,4.70
2023-03-02T15:05:34.768Z,4.80
2023-03-02T15:10:36.320Z,5.17
2023-03-02T15:15:38.450Z,5.27
2023-03-02T15:20:40.117Z,4.50
2023-03-02T15:25:43.532Z,4.50
2023-03-02T15:30:47.468Z,4.00
2023-03-02T15:35:55.430Z,3.87
2023-03-02T15:40:57.317Z,4.60
2023-03-02T15:45:59.281Z,3.97
2023-03-02T15:51:07.934Z,4.10
2023-03-02T15:56:13.644Z,4.30
2023-03-02T16:01:16.318Z,3.87
2023-03-02T16:06:18.165Z,4.30
2023-03-02T16:11:23.300Z,3.93
2023-03-02T16:16:25.100Z,4.30
2023-03-02T16:21:29.516Z,4.23
2023-03-02T16:26:33.193Z,3.90
2023-03-02T16:31:37.648Z,4.53
2023-03-02T16:36:41.024Z,4.20
2023-03-02T16:41:43.644Z,3.40
2023-03-02T16:46:45.494Z,3.70
2023-03-02T16:51:47.020Z,2.93
2023-03-02T16:56:48.742Z,3.00
2023-03-02T17:01:50.796Z,3.10
2023-03-02T17:07:00.438Z,3.33
2023-03-02T17:12:03.741Z,3.27
2023-03-02T17:17:05.767Z,3.30
2023-03-02T17:22:07.406Z,3.73
2023-03-02T17:27:23.806Z,3.47
2023-03-02T17:32:26.567Z,3.87
2023-03-02T17:37:30.037Z,4.47
2023-03-02T17:42:31.663Z,4.50
2023-03-02T17:47:34.335Z,3.50
2023-03-02T17:52:35.937Z,3.60
2023-03-02T17:57:37.780Z,3.20
2023-03-02T18:02:39.470Z,3.00
2023-03-02T18:07:41.785Z,3.43
2023-03-02T18:12:43.457Z,3.77
2023-03-02T18:17:45.069Z,3.20
2023-03-02T18:22:46.602Z,3.90
2023-03-02T18:27:48.269Z,3.90
2023-03-02T18:32:50.124Z,3.40
2023-03-02T18:37:52.071Z,4.07
2023-03-02T18:42:53.614Z,4.00
2023-03-02T18:47:56.034Z,4.10
2023-03-02T18:52:57.617Z,3.70
2023-03-02T18:57:59.213Z,3.97
2023-03-02T19:03:00.918Z,8.23
2023-03-02T19:08:02.768Z,4.10
2023-03-02T19:13:05.865Z,4.30
2023-03-02T19:18:08.343Z,4.40
2023-03-02T19:23:10.777Z,5.27
2023-03-02T19:28:12.910Z,4.87
2023-03-02T19:33:14.512Z,4.93
2023-03-02T19:38:16.183Z,4.53
2023-03-02T19:43:20.216Z,5.67
2023-03-02T19:48:22.117Z,5.57
2023-03-02T19:53:24.028Z,6.47
2023-03-02T19:58:26.831Z,5.13
2023-03-02T20:03:28.375Z,6.00
2023-03-02T20:08:30.158Z,5.57
2023-03-02T20:13:33.123Z,5.73
2023-03-02T20:18:35.595Z,5.20
2023-03-02T20:23:37.728Z,5.10
2023-03-02T20:28:39.349Z,5.33
2023-03-02T20:33:52.006Z,6.07
2023-03-02T20:38:59.012Z,6.37
2023-03-02T20:44:00.621Z,6.10
2023-03-02T20:49:03.250Z,7.20
2023-03-02T20:54:05.441Z,7.33
2023-03-02T20:59:07.223Z,8.30
2023-03-02T21:04:09.064Z,7.80
2023-03-02T21:09:11.347Z,7.93
2023-03-02T21:14:14.165Z,6.90
2023-03-02T21:19:17.139Z,7.80
2023-03-02T21:24:18.717Z,7.60
2023-03-02T21:29:22.289Z,7.80
2023-03-02T21:34:23.819Z,7.37
2023-03-02T21:39:25.499Z,9.10
2023-03-02T21:44:27.056Z,8.17
2023-03-02T21:49:28.759Z,7.67
2023-03-02T21:54:30.464Z,7.90
2023-03-02T21:59:32.117Z,7.10
2023-03-02T22:04:35.627Z,7.53
2023-03-02T22:09:37.510Z,8.13
2023-03-02T22:14:39.689Z,7.93
2023-03-02T22:19:43.189Z,7.70
2023-03-02T22:24:49.702Z,7.23
2023-03-02T22:29:55.313Z,7.60
2023-03-02T22:34:59.304Z,7.47
2023-03-02T22:40:02.757Z,8.23
2023-03-02T22:45:14.905Z,8.70
2023-03-02T22:50:22.736Z,8.10
2023-03-02T22:55:50.010Z,8.23
2023-03-02T23:00:52.035Z,8.00
2023-03-02T23:05:54.679Z,7.20
2023-03-02T23:10:58.035Z,8.10
2023-03-02T23:16:01.316Z,10.37
2023-03-02T23:21:02.972Z,7.10
2023-03-02T23:26:04.630Z,6.63
2023-03-02T23:31:06.441Z,7.20
2023-03-02T23:36:08.153Z,7.50
2023-03-02T23:41:10.013Z,6.73
2023-03-02T23:46:14.036Z,6.60
2023-03-02T23:51:16.031Z,6.80
2023-03-02T23:56:18.002Z,7.30
